Time;durP1;ratioP1;P1;durP2;ratioP2;P2;SDS_P1;SDS_P2;PMS_P1;PMS_P2;Temp;Humidity;BMP_temperature;BMP_pressure;BME280_temperature;BME280_humidity;BME280_pressure;Samples;Min_cycle;Max_cycle;Signal;HPM_P1;HPM_P2
2022/01/27 00:05:02;;;;;;;8.68;8.20;;;;;;;-0.29;100.00;101250.38;5007733;28;20694;-62
2022/01/27 00:07:28;;;;;;;8.38;7.97;;;;;;;-0.27;100.00;101245.91;5005860;28;20105;-62
2022/01/27 00:12:39;;;;;;;8.88;8.35;;;;;;;-0.26;100.00;101245.00;5008461;28;20850;-62
2022/01/27 00:15:10;;;;;;;8.52;8.07;;;;;;;-0.26;100.00;101259.78;4991742;28;20402;-61
2022/01/27 00:17:42;;;;;;;8.10;7.70;;;;;;;-0.27;100.00;101253.75;4993639;28;20034;-63
2022/01/27 00:20:08;;;;;;;8.45;8.05;;;;;;;-0.33;100.00;101251.47;5010692;28;20114;-63
2022/01/27 00:22:33;;;;;;;8.80;8.30;;;;;;;-0.20;100.00;101249.84;5009877;28;20057;-62
2022/01/27 00:25:02;;;;;;;8.68;8.23;;;;;;;-0.29;100.00;101242.56;5006903;28;20610;-62
2022/01/27 00:27:27;;;;;;;8.85;8.35;;;;;;;-0.26;100.00;101251.97;5010033;28;20053;-62
2022/01/27 00:29:53;;;;;;;9.02;8.50;;;;;;;-0.23;100.00;101243.97;5008060;28;20029;-62
2022/01/27 00:32:19;;;;;;;8.65;8.18;;;;;;;-0.19;100.00;101245.47;5004664;28;20026;-62
2022/01/27 00:34:44;;;;;;;9.35;8.75;;;;;;;-0.46;100.00;101203.56;5009676;28;20500;-61
2022/01/27 00:37:11;;;;;;;8.52;8.13;;;;;;;-0.21;100.00;101242.13;5009122;28;20034;-61
2022/01/27 00:39:36;;;;;;;8.63;8.18;;;;;;;-0.22;100.00;101238.69;5003140;28;20021;-61
2022/01/27 00:42:01;;;;;;;8.93;8.43;;;;;;;-0.30;100.00;101241.69;5009035;28;20080;-62
2022/01/27 00:44:27;;;;;;;8.40;8.00;;;;;;;-0.28;100.00;101237.25;5008251;28;20033;-62
2022/01/27 00:46:52;;;;;;;9.85;9.25;;;;;;;-0.24;100.00;101235.31;5008263;28;20052;-62
2022/01/27 00:49:18;;;;;;;8.38;7.97;;;;;;;-0.17;100.00;101225.38;5007547;28;20092;-62
2022/01/27 00:51:46;;;;;;;8.75;8.25;;;;;;;-0.21;100.00;101226.50;5008133;28;20018;-62
2022/01/27 00:54:22;;;;;;;8.45;8.05;;;;;;;-0.23;100.00;101226.56;5008025;28;20461;-62
2022/01/27 00:59:28;;;;;;;8.77;8.27;;;;;;;-0.23;100.00;101221.34;5008526;28;20040;-62
2022/01/27 01:02:24;;;;;;;9.07;8.57;;;;;;;-0.19;100.00;101219.41;5006790;28;20448;-63
2022/01/27 01:04:43;;;;;;;8.30;7.90;;;;;;;-0.20;100.00;101207.31;5007518;28;20038;-62
2022/01/27 01:07:10;;;;;;;9.10;8.60;;;;;;;-0.26;100.00;101207.66;5002831;28;20028;-63
2022/01/27 01:14:57;;;;;;;;;;;;;;;-0.33;100.00;101196.72;5009174;28;20036;-62
2022/01/27 01:17:34;;;;;;;8.40;8.00;;;;;;;-0.36;100.00;101187.34;5009651;28;20000;-62
2022/01/27 01:31:09;;;;;;;8.85;8.35;;;;;;;-0.45;100.00;101177.41;5005652;28;20083;-62
2022/01/27 01:33:38;;;;;;;8.93;8.43;;;;;;;-0.43;100.00;101172.97;5003773;28;20026;-64
2022/01/27 01:36:15;;;;;;;9.85;9.25;;;;;;;-0.48;100.00;101177.59;5005589;28;20404;-63
2022/01/27 01:38:41;;;;;;;8.05;7.65;;;;;;;-0.51;100.00;101171.72;5007673;28;20026;-63
2022/01/27 01:41:07;;;;;;;9.18;8.65;;;;;;;-0.44;100.00;101178.25;5003767;28;20034;-62
2022/01/27 01:43:32;;;;;;;8.50;8.10;;;;;;;-0.41;100.00;101194.56;4991854;28;20033;-62
2022/01/27 01:45:58;;;;;;;9.15;8.65;;;;;;;-0.41;100.00;101181.53;5008489;28;20037;-62
2022/01/27 01:48:23;;;;;;;8.73;8.23;;;;;;;-0.43;100.00;101182.56;5007068;28;20504;-63
2022/01/27 01:50:49;;;;;;;8.88;8.38;;;;;;;-0.43;100.00;101190.38;5004410;28;20060;-62
2022/01/27 01:53:16;;;;;;;10.70;9.95;;;;;;;-0.43;100.00;101182.56;4999809;28;20113;-62
2022/01/27 01:55:42;;;;;;;8.18;7.78;;;;;;;-0.46;100.00;101188.78;5006775;28;20038;-62
2022/01/27 01:58:08;;;;;;;8.32;7.93;;;;;;;-0.40;100.00;101188.41;4989890;28;20026;-62
2022/01/27 02:00:34;;;;;;;8.70;8.20;;;;;;;-0.42;100.00;101187.69;5009618;28;20025;-62
2022/01/27 02:03:00;;;;;;;9.40;8.82;;;;;;;-0.48;100.00;101177.59;5006335;28;20037;-62
2022/01/27 02:05:31;;;;;;;9.25;8.75;;;;;;;-0.52;100.00;101188.28;5008463;28;20026;-62
2022/01/27 02:19:24;;;;;;;8.30;7.90;;;;;;;-0.46;100.00;101191.38;5009981;28;20134;-62
2022/01/27 02:21:53;;;;;;;9.23;8.68;;;;;;;-0.51;100.00;101182.13;5006682;28;20030;-64
2022/01/27 02:24:19;;;;;;;8.80;8.30;;;;;;;-0.39;100.00;101195.31;5006996;28;20046;-62
2022/01/27 02:26:48;;;;;;;9.10;8.60;;;;;;;-0.44;100.00;101188.69;5007487;28;20067;-63
2022/01/27 02:29:15;;;;;;;8.40;8.00;;;;;;;-0.44;100.00;101192.16;4991971;28;20038;-61
2022/01/27 02:31:41;;;;;;;8.45;8.05;;;;;;;-0.41;100.00;101188.53;5002992;28;20058;-64
2022/01/27 02:34:07;;;;;;;9.13;8.63;;;;;;;-0.47;100.00;101181.03;5008644;28;20125;-61
2022/01/27 02:36:33;;;;;;;9.02;8.52;;;;;;;-0.49;100.00;101175.09;5009891;28;20124;-63
2022/01/27 02:38:59;;;;;;;9.90;9.30;;;;;;;-0.49;100.00;101173.31;5004706;28;20030;-62
2022/01/27 02:41:27;;;;;;;8.90;8.40;;;;;;;-0.53;100.00;101168.38;5006196;28;20527;-62
2022/01/27 02:43:56;;;;;;;9.55;8.95;;;;;;;-0.51;100.00;101164.75;5005576;28;20101;-62
2022/01/27 02:46:30;;;;;;;8.38;7.97;;;;;;;-0.53;100.00;101169.19;5007824;28;20029;-62
2022/01/27 02:48:56;;;;;;;;;;;;;;;-0.49;100.00;101164.66;5006004;28;20412;-62
2022/01/27 02:51:21;;;;;;;9.00;8.50;;;;;;;-0.44;100.00;101165.22;5010312;28;19917;-62
2022/01/27 02:53:47;;;;;;;9.73;9.13;;;;;;;-0.62;100.00;101128.88;5011207;28;20038;-62
2022/01/27 02:56:12;;;;;;;9.07;8.57;;;;;;;-0.43;100.00;101152.13;5011228;28;20446;-62
2022/01/27 02:58:38;;;;;;;8.38;7.97;;;;;;;-0.43;100.00;101159.09;5006844;28;20429;-61
2022/01/27 03:01:04;;;;;;;8.70;8.20;;;;;;;-0.39;100.00;101160.59;5006784;28;20052;-63
2022/01/27 03:03:30;;;;;;;8.30;7.90;;;;;;;-0.51;100.00;101132.63;5010600;28;20488;-62
2022/01/27 03:05:55;;;;;;;8.85;8.35;;;;;;;-0.35;100.00;101156.88;5008842;28;20053;-61
2022/01/27 03:08:22;;;;;;;8.93;8.43;;;;;;;-0.33;100.00;101160.25;5011076;28;20077;-62
2022/01/27 03:10:52;;;;;;;9.45;8.85;;;;;;;-0.32;100.00;101169.72;5010654;28;20116;-62
2022/01/27 03:13:19;;;;;;;8.85;8.35;;;;;;;-0.38;100.00;101147.47;5014861;28;20037;-62
2022/01/27 03:15:44;;;;;;;8.70;8.20;;;;;;;-0.31;100.00;101161.81;5008523;28;20502;-61
2022/01/27 03:18:10;;;;;;;8.45;8.05;;;;;;;-0.30;100.00;101155.66;5009495;28;20034;-62
2022/01/27 03:20:38;;;;;;;9.07;8.57;;;;;;;-0.25;100.00;101154.56;5009138;28;20022;-62
2022/01/27 03:23:05;;;;;;;8.73;8.23;;;;;;;-0.26;100.00;101160.72;5006866;28;20045;-62
2022/01/27 03:25:31;;;;;;;9.52;8.93;;;;;;;-0.36;100.00;101153.44;5007846;28;20029;-62
2022/01/27 03:27:56;;;;;;;8.30;7.90;;;;;;;-0.38;100.00;101150.06;5009323;28;20124;-62
2022/01/27 03:30:22;;;;;;;9.80;9.20;;;;;;;-0.41;100.00;101152.88;5009298;28;20030;-62
2022/01/27 03:32:48;;;;;;;8.82;8.32;;;;;;;-0.35;100.00;101155.13;5009565;28;20018;-61
2022/01/27 03:35:13;;;;;;;8.30;7.90;;;;;;;-0.33;100.00;101150.66;5010864;28;20472;-62
2022/01/27 03:37:39;;;;;;;9.25;8.73;;;;;;;-0.36;100.00;101156.06;5003171;28;20033;-62
2022/01/27 03:40:05;;;;;;;8.85;8.35;;;;;;;-0.35;100.00;101157.72;5009998;28;20076;-62
2022/01/27 03:42:31;;;;;;;9.07;8.57;;;;;;;-0.31;100.00;101155.75;5009467;28;20022;-61
2022/01/27 03:44:56;;;;;;;9.07;8.57;;;;;;;-0.35;100.00;101157.72;5009680;28;20040;-63
2022/01/27 03:47:22;;;;;;;9.00;8.50;;;;;;;-0.26;100.00;101158.94;5009195;28;20030;-63
2022/01/27 03:49:47;;;;;;;8.55;8.07;;;;;;;-0.21;100.00;101163.91;5007290;28;20034;-62
2022/01/27 03:52:13;;;;;;;8.63;8.18;;;;;;;-0.18;100.00;101158.50;5010274;28;20026;-62
2022/01/27 03:54:38;;;;;;;8.80;8.30;;;;;;;-0.14;100.00;101160.00;5007626;28;20062;-62
2022/01/27 03:57:04;;;;;;;8.80;8.30;;;;;;;-0.15;100.00;101161.75;5009120;28;20041;-62
2022/01/27 03:59:30;;;;;;;8.35;7.95;;;;;;;-0.18;100.00;101153.28;5022994;28;20107;-62
2022/01/27 04:01:56;;;;;;;8.13;7.72;;;;;;;-0.22;100.00;101159.59;5003846;28;20030;-61
2022/01/27 04:04:23;;;;;;;8.98;8.48;;;;;;;-0.34;100.00;101146.38;5010053;28;20067;-63
2022/01/27 04:06:52;;;;;;;8.75;8.25;;;;;;;-0.23;100.00;101157.94;4990376;28;20036;-61
2022/01/27 04:09:18;;;;;;;8.63;8.13;;;;;;;-0.22;100.00;101165.69;5011714;28;20032;-62
2022/01/27 04:11:47;;;;;;;9.45;8.85;;;;;;;-0.28;100.00;101173.84;5006131;28;20025;-63
2022/01/27 04:14:12;;;;;;;8.25;7.85;;;;;;;-0.29;100.00;101161.75;5010420;28;20420;-62
2022/01/27 04:16:38;;;;;;;9.82;9.23;;;;;;;-0.17;100.00;101165.38;5006644;28;20033;-63
2022/01/27 04:19:04;;;;;;;9.25;8.75;;;;;;;-0.14;100.00;101160.84;5008449;28;20040;-63
2022/01/27 04:21:29;;;;;;;8.60;8.18;;;;;;;-0.11;100.00;101157.22;5008105;28;20542;-62
2022/01/27 04:23:55;;;;;;;9.02;8.52;;;;;;;-0.11;100.00;101172.84;5009893;28;20526;-62
2022/01/27 04:26:27;;;;;;;8.95;8.45;;;;;;;-0.19;100.00;101151.63;5008108;28;20389;-63
2022/01/27 04:28:53;;;;;;;8.18;7.78;;;;;;;-0.13;100.00;101162.53;4992230;28;20444;-62
2022/01/27 04:31:22;;;;;;;8.13;7.72;;;;;;;-0.10;100.00;101164.94;5007673;28;20544;-63
2022/01/27 04:33:47;;;;;;;9.10;8.57;;;;;;;-0.05;100.00;101162.06;5007982;28;20030;-63
2022/01/27 04:36:35;;;;;;;8.70;8.20;;;;;;;-0.08;100.00;101163.06;5010467;28;20056;-62
2022/01/27 04:39:12;;;;;;;8.90;8.40;;;;;;;-0.15;100.00;101159.16;5007884;28;20058;-63
2022/01/27 04:41:46;;;;;;;9.13;8.63;;;;;;;-0.17;100.00;101153.19;5008005;28;20445;-61
2022/01/27 04:47:08;;;;;;;9.80;9.20;;;;;;;-0.20;100.00;101149.94;5007691;28;20120;-62
2022/01/27 04:49:27;;;;;;;8.90;8.40;;;;;;;-0.19;100.00;101156.81;5004961;28;20580;-62
2022/01/27 04:51:53;;;;;;;9.40;8.80;;;;;;;-0.16;100.00;101152.25;5006976;28;20030;-62
2022/01/27 04:56:47;;;;;;;9.27;8.75;;;;;;;-0.30;100.00;101120.94;5004694;28;20833;-61
2022/01/27 04:59:24;;;;;;;8.93;8.43;;;;;;;-0.08;100.00;101141.38;5008419;28;20038;-61
2022/01/27 05:02:03;;;;;;;8.85;8.35;;;;;;;-0.07;100.00;101146.53;5004941;28;20049;-63
2022/01/27 05:04:33;;;;;;;8.70;8.20;;;;;;;-0.02;100.00;101148.84;5010164;28;20436;-62
2022/01/27 05:06:59;;;;;;;9.90;9.30;;;;;;;-0.08;100.00;101143.97;5001268;28;20125;-62
2022/01/27 05:09:24;;;;;;;10.10;9.40;;;;;;;-0.03;100.00;101148.00;5002005;28;20112;-62
2022/01/27 05:11:55;;;;;;;8.40;8.00;;;;;;;-0.06;100.00;101139.53;5006805;28;20491;-62
2022/01/27 05:14:23;;;;;;;9.55;8.95;;;;;;;-0.05;100.00;101136.81;4989751;28;20026;-62
2022/01/27 05:16:49;;;;;;;8.52;8.02;;;;;;;0.00;100.00;101149.59;5003875;28;21685;-63
2022/01/27 05:19:16;;;;;;;10.55;9.85;;;;;;;0.02;100.00;101147.72;5005193;28;20021;-62
2022/01/27 05:21:41;;;;;;;9.48;8.88;;;;;;;0.00;100.00;101154.81;5007833;28;20041;-61
2022/01/27 05:24:08;;;;;;;8.82;8.32;;;;;;;-0.06;100.00;101136.94;5007069;28;20034;-63
2022/01/27 05:26:34;;;;;;;8.95;8.45;;;;;;;-0.03;100.00;101147.16;5003734;28;20111;-64
2022/01/27 05:29:02;;;;;;;9.93;9.30;;;;;;;0.01;100.00;101153.88;5004686;28;20057;-63
2022/01/27 05:31:27;;;;;;;9.88;9.23;;;;;;;0.03;100.00;101159.00;5006804;28;20022;-63
2022/01/27 05:33:53;;;;;;;10.57;9.88;;;;;;;0.06;100.00;101170.06;5004454;28;20032;-62
2022/01/27 05:36:18;;;;;;;10.02;9.32;;;;;;;0.13;100.00;101160.97;5003321;28;20049;-62
2022/01/27 05:38:44;;;;;;;10.90;10.10;;;;;;;0.09;100.00;101150.81;5006531;28;20377;-62
2022/01/27 05:41:09;;;;;;;9.45;8.85;;;;;;;0.10;100.00;101149.88;5010257;28;20037;-62
2022/01/27 05:43:35;;;;;;;8.45;7.95;;;;;;;0.22;100.00;101157.81;5006748;28;20033;-63
2022/01/27 05:46:00;;;;;;;8.32;7.90;;;;;;;0.21;100.00;101160.50;5007453;28;20030;-61
2022/01/27 05:48:26;;;;;;;8.48;8.05;;;;;;;0.18;100.00;101161.53;5008970;28;20030;-63
2022/01/27 05:50:51;;;;;;;8.85;8.35;;;;;;;0.43;100.00;101165.25;4984299;28;20080;-62
2022/01/27 05:53:17;;;;;;;8.30;7.90;;;;;;;0.28;100.00;101156.59;5008341;28;20018;-61
2022/01/27 05:55:43;;;;;;;9.40;8.80;;;;;;;0.26;100.00;101163.66;5007249;28;20037;-63
2022/01/27 05:58:08;;;;;;;9.52;8.93;;;;;;;0.28;100.00;101170.47;5005071;28;20029;-62
2022/01/27 06:00:34;;;;;;;9.48;8.88;;;;;;;0.22;100.00;101160.44;5006704;28;20403;-63
2022/01/27 06:03:00;;;;;;;9.52;8.93;;;;;;;0.19;100.00;101165.81;5005737;28;20058;-62
2022/01/27 06:05:26;;;;;;;9.57;8.98;;;;;;;0.22;100.00;101178.69;5008479;28;20079;-62
2022/01/27 06:07:52;;;;;;;9.45;8.85;;;;;;;0.19;100.00;101165.81;5004291;28;20018;-63
2022/01/27 06:10:18;;;;;;;8.70;8.20;;;;;;;0.26;100.00;101176.72;5010246;28;20060;-62
2022/01/27 06:12:56;;;;;;;9.55;8.95;;;;;;;0.22;100.00;101173.47;5013578;28;20054;-62
2022/01/27 06:15:26;;;;;;;9.00;8.50;;;;;;;0.17;100.00;101175.50;5008592;28;20036;-60
2022/01/27 06:17:52;;;;;;;9.43;8.82;;;;;;;0.17;100.00;101175.50;5004392;28;20126;-62
2022/01/27 06:20:18;;;;;;;8.50;8.05;;;;;;;0.32;100.00;101181.56;5004330;28;20471;-62
2022/01/27 06:22:44;;;;;;;8.80;8.30;;;;;;;0.31;100.00;101181.69;5009949;28;20026;-61
2022/01/27 06:25:11;;;;;;;9.10;8.60;;;;;;;0.43;100.00;101184.34;5011470;28;20568;-62
2022/01/27 06:27:37;;;;;;;9.60;9.00;;;;;;;0.35;100.00;101185.75;4980861;28;20046;-62
2022/01/27 06:30:05;;;;;;;8.93;8.43;;;;;;;0.48;100.00;101186.69;5006740;28;20473;-62
2022/01/27 06:32:31;;;;;;;9.65;9.05;;;;;;;0.36;100.00;101174.38;5005475;28;20053;-62
2022/01/27 06:34:57;;;;;;;9.52;8.95;;;;;;;0.42;100.00;101185.28;5009818;28;20030;-61
2022/01/27 06:37:23;;;;;;;9.23;8.73;;;;;;;0.49;100.00;101188.38;5017739;28;20036;-61
2022/01/27 06:39:48;;;;;;;9.63;9.02;;;;;;;0.40;100.00;101178.50;5009376;28;20029;-62
2022/01/27 06:42:14;;;;;;;9.52;8.93;;;;;;;0.45;100.00;101185.13;5007460;28;20025;-62
2022/01/27 06:44:39;;;;;;;10.82;10.02;;;;;;;0.46;100.00;101192.00;5011411;28;20029;-62
2022/01/27 06:47:05;;;;;;;9.57;8.98;;;;;;;0.47;100.00;101198.06;5006598;28;20113;-61
2022/01/27 06:49:31;;;;;;;9.43;8.82;;;;;;;0.51;100.00;101192.59;5006342;28;20515;-62
2022/01/27 06:51:56;;;;;;;9.23;8.70;;;;;;;0.40;100.00;101175.88;5012803;28;20067;-62
2022/01/27 06:54:22;;;;;;;8.35;7.95;;;;;;;0.49;100.00;101198.81;5013470;28;20036;-62
2022/01/27 06:56:47;;;;;;;9.00;8.50;;;;;;;0.41;100.00;101167.97;5015031;28;20745;-62
2022/01/27 06:59:13;;;;;;;8.90;8.40;;;;;;;0.55;100.00;101194.06;5013454;28;20109;-61
2022/01/27 07:01:39;;;;;;;9.63;9.02;;;;;;;0.58;100.00;101203.47;5000831;28;20046;-63
2022/01/27 07:04:05;;;;;;;9.98;9.27;;;;;;;0.65;100.00;101186.50;5002486;28;20076;-62
2022/01/27 07:06:32;;;;;;;8.43;8.02;;;;;;;0.73;100.00;101188.63;5013573;28;20029;-61
2022/01/27 07:08:58;;;;;;;8.90;8.40;;;;;;;0.70;100.00;101194.03;5012293;28;20040;-63
2022/01/27 07:11:24;;;;;;;8.75;8.25;;;;;;;0.82;100.00;101198.53;5014023;28;20468;-63
2022/01/27 07:13:49;;;;;;;8.50;8.05;;;;;;;0.87;100.00;101193.81;5007433;28;20025;-62
2022/01/27 07:16:15;;;;;;;9.02;8.52;;;;;;;0.81;100.00;101195.06;5011026;28;20032;-62
2022/01/27 07:18:40;;;;;;;9.88;9.27;;;;;;;0.83;100.00;101189.75;5003537;28;20029;-63
2022/01/27 07:21:06;;;;;;;9.70;9.10;;;;;;;0.89;100.00;101183.31;5006083;28;20080;-64
2022/01/27 07:23:32;;;;;;;8.95;8.45;;;;;;;1.06;100.00;101183.91;5001771;28;20113;-63
2022/01/27 07:25:57;;;;;;;12.73;11.68;;;;;;;1.01;100.00;101178.13;5007418;28;20400;-63
2022/01/27 07:28:23;;;;;;;8.75;8.25;;;;;;;1.11;100.00;101181.00;5012798;28;20054;-63
2022/01/27 07:30:48;;;;;;;9.35;8.75;;;;;;;1.16;100.00;101180.69;5012500;28;20108;-63
2022/01/27 07:33:14;;;;;;;8.68;8.20;;;;;;;1.23;100.00;101184.59;5014524;28;20440;-63
2022/01/27 07:35:40;;;;;;;9.30;8.70;;;;;;;1.19;100.00;101191.81;5008107;28;20121;-64
2022/01/27 07:38:06;;;;;;;10.18;9.48;;;;;;;1.30;100.00;101181.47;5010395;28;20092;-63
2022/01/27 07:40:32;;;;;;;8.70;8.20;;;;;;;1.31;100.00;101180.53;5004558;28;20045;-63
2022/01/27 07:42:57;;;;;;;8.50;8.07;;;;;;;1.38;100.00;101188.84;5009029;28;20038;-63
2022/01/27 07:45:23;;;;;;;8.93;8.43;;;;;;;1.35;100.00;101175.97;4976721;28;20057;-63
2022/01/27 07:47:48;;;;;;;8.75;8.25;;;;;;;1.56;100.00;101181.59;5004053;28;20069;-63
2022/01/27 07:50:14;;;;;;;8.45;8.02;;;;;;;1.68;100.00;101180.75;5008555;28;20030;-64
2022/01/27 07:52:41;;;;;;;8.88;8.38;;;;;;;1.77;100.00;101177.56;5006321;28;20424;-63
2022/01/27 07:55:08;;;;;;;8.30;7.90;;;;;;;1.76;100.00;101177.63;5013020;28;20030;-64
2022/01/27 07:57:33;;;;;;;9.38;8.77;;;;;;;1.79;100.00;101177.44;5008194;28;20055;-65
2022/01/27 07:59:59;;;;;;;9.02;8.52;;;;;;;2.06;100.00;101182.63;5009031;28;20029;-64
2022/01/27 08:02:24;;;;;;;8.50;8.10;;;;;;;1.84;100.00;101181.44;5007043;28;20030;-64
2022/01/27 08:04:50;;;;;;;8.73;8.23;;;;;;;1.87;100.00;101181.22;5009949;28;20072;-63
2022/01/27 08:07:15;;;;;;;9.52;8.93;;;;;;;1.99;100.00;101176.13;5005586;28;20449;-63
2022/01/27 08:09:41;;;;;;;9.07;8.57;;;;;;;1.87;100.00;101172.53;5010361;28;20030;-63
2022/01/27 08:12:06;;;;;;;9.32;8.73;;;;;;;2.23;100.00;101187.53;5011997;28;20108;-61
2022/01/27 08:14:32;;;;;;;8.13;7.72;;;;;;;2.08;100.00;101201.66;5016662;28;20547;-62
2022/01/27 08:16:57;;;;;;;9.23;8.63;;;;;;;2.27;100.00;101202.06;5006299;28;20033;-63
2022/01/27 08:19:23;;;;;;;8.48;8.07;;;;;;;2.26;100.00;101200.41;5008517;28;20030;-64
2022/01/27 08:21:48;;;;;;;8.10;7.70;;;;;;;2.24;100.00;101198.84;5012138;28;20505;-64
2022/01/27 08:24:15;;;;;;;8.30;7.90;;;;;;;2.42;100.00;101200.19;5016384;28;20085;-63
2022/01/27 08:26:44;;;;;;;8.88;8.38;;;;;;;2.28;100.00;101195.91;5006527;28;20050;-63
2022/01/27 08:29:14;;;;;;;9.52;8.93;;;;;;;2.33;100.00;101199.03;5006224;28;20112;-63
2022/01/27 08:34:30;;;;;;;9.38;8.80;;;;;;;2.49;100.00;101206.66;5009310;28;20044;-63
2022/01/27 08:36:56;;;;;;;8.57;8.18;;;;;;;2.61;100.00;101199.75;5007086;28;20034;-64
2022/01/27 08:39:22;;;;;;;9.27;8.70;;;;;;;2.54;100.00;101191.47;5005877;28;20041;-64
2022/01/27 08:41:48;;;;;;;9.35;8.80;;;;;;;2.61;100.00;101205.81;5010910;28;20030;-63
2022/01/27 08:44:13;;;;;;;8.85;8.35;;;;;;;2.72;100.00;101216.41;4993105;28;20113;-66
2022/01/27 08:46:39;;;;;;;8.35;7.93;;;;;;;2.58;100.00;101218.31;5012180;28;20029;-65
2022/01/27 08:49:05;;;;;;;8.15;7.75;;;;;;;2.69;100.00;101216.59;5005528;28;20038;-67
2022/01/27 08:51:32;;;;;;;8.48;8.05;;;;;;;2.73;100.00;101220.69;5009106;28;20087;-67
2022/01/27 08:53:58;;;;;;;8.70;8.20;;;;;;;2.75;100.00;101205.69;5011575;28;20029;-68
2022/01/27 08:56:23;;;;;;;9.27;8.70;;;;;;;2.83;100.00;101214.81;4999571;28;20078;-68
2022/01/27 08:58:49;;;;;;;8.10;7.70;;;;;;;2.81;100.00;101203.59;5002359;28;20045;-70
2022/01/27 09:01:15;;;;;;;7.63;7.30;;;;;;;2.88;100.00;101192.56;5005975;28;20048;-68
2022/01/27 09:03:41;;;;;;;8.18;7.78;;;;;;;2.98;100.00;101208.47;5007339;28;20025;-69
2022/01/27 09:06:07;;;;;;;8.82;8.32;;;;;;;3.06;100.00;101203.53;4998506;28;20022;-70
2022/01/27 09:08:33;;;;;;;8.45;8.05;;;;;;;3.18;100.00;101199.19;5003241;28;20038;-69
2022/01/27 09:10:58;;;;;;;7.65;7.35;;;;;;;3.17;100.00;101185.25;5002673;28;20054;-70
2022/01/27 09:13:24;;;;;;;8.07;7.68;;;;;;;3.21;100.00;101204.22;4974152;28;20061;-70
2022/01/27 09:15:50;;;;;;;9.32;8.73;;;;;;;3.33;100.00;101203.34;5001001;28;20046;-69
2022/01/27 09:18:16;;;;;;;8.48;7.97;;;;;;;3.19;100.00;101201.69;5001669;28;20017;-70
2022/01/27 09:20:43;;;;;;;9.00;8.50;;;;;;;3.31;100.00;101195.59;5013562;28;20080;-66
2022/01/27 09:23:13;;;;;;;8.23;7.82;;;;;;;3.29;100.00;101191.38;5008370;28;20034;-66
2022/01/27 09:25:45;;;;;;;9.50;8.90;;;;;;;3.30;100.00;101198.28;5003575;28;20080;-66
2022/01/27 09:28:15;;;;;;;8.63;8.13;;;;;;;3.41;100.00;101193.13;5012989;28;20037;-65
2022/01/27 09:30:43;;;;;;;8.77;8.27;;;;;;;3.50;100.00;101196.84;5011041;28;20050;-65
2022/01/27 09:33:08;;;;;;;8.20;7.80;;;;;;;3.40;100.00;101196.69;5009597;28;20030;-65
2022/01/27 09:35:34;;;;;;;8.30;7.90;;;;;;;3.43;100.00;101193.84;5008679;28;20170;-66
2022/01/27 09:38:00;;;;;;;8.30;7.90;;;;;;;3.32;100.00;101191.16;5003752;28;20061;-66
2022/01/27 09:40:28;;;;;;;8.88;8.38;;;;;;;3.48;100.00;101188.25;4995746;28;20133;-65
2022/01/27 09:42:55;;;;;;;9.38;8.82;;;;;;;3.69;100.00;101189.31;5009520;28;20030;-66
2022/01/27 09:45:22;;;;;;;8.75;8.25;;;;;;;3.76;100.00;101189.69;5007011;28;20030;-65
2022/01/27 09:47:57;;;;;;;8.73;8.23;;;;;;;3.68;100.00;101198.13;5003849;28;20794;-66
2022/01/27 09:50:35;;;;;;;;;;;;;;;3.79;100.00;101194.69;5001383;28;20417;-65
2022/01/27 09:53:01;;;;;;;8.98;8.43;;;;;;;3.83;100.00;101186.47;4994209;28;20014;-65
2022/01/27 09:55:26;;;;;;;8.77;8.27;;;;;;;3.90;100.00;101189.50;5012139;28;20037;-66
2022/01/27 09:57:54;;;;;;;9.63;9.02;;;;;;;3.80;100.00;101183.25;5000739;28;20466;-66
2022/01/27 10:00:21;;;;;;;8.52;8.07;;;;;;;3.69;100.00;101183.22;5004282;28;20053;-66
2022/01/27 10:03:07;;;;;;;8.20;7.80;;;;;;;3.83;100.00;101181.25;5011051;28;20088;-68
2022/01/27 10:05:33;;;;;;;9.50;8.90;;;;;;;3.92;100.00;101179.69;5005272;28;20726;-67
2022/01/27 10:08:19;;;;;;;8.93;8.43;;;;;;;4.00;100.00;101174.69;5007873;28;20044;-65
2022/01/27 10:10:50;;;;;;;9.85;9.25;;;;;;;3.90;100.00;101176.38;5016065;28;20036;-66
2022/01/27 10:13:37;;;;;;;8.65;8.18;;;;;;;3.82;100.00;101163.00;5014060;28;20500;-67
2022/01/27 10:16:04;;;;;;;8.95;8.45;;;;;;;3.72;99.84;101157.56;4998904;28;20034;-66
2022/01/27 10:18:35;;;;;;;9.45;8.90;;;;;;;3.84;99.82;101161.91;5003721;28;20490;-66
2022/01/27 10:21:02;;;;;;;9.05;8.55;;;;;;;3.73;100.00;101164.50;5003791;28;20085;-66
2022/01/27 10:23:33;;;;;;;8.98;8.48;;;;;;;3.68;100.00;101160.56;5023590;28;20127;-65
2022/01/27 10:26:09;;;;;;;8.60;8.10;;;;;;;3.66;100.00;101159.81;4990024;28;20034;-67
2022/01/27 10:28:44;;;;;;;9.55;8.95;;;;;;;3.87;100.00;101150.34;5010552;28;20049;-68
2022/01/27 10:31:13;;;;;;;8.88;8.38;;;;;;;3.73;100.00;101154.00;5005372;28;20033;-67
2022/01/27 10:33:46;;;;;;;8.43;8.02;;;;;;;3.68;100.00;101150.91;5009423;28;20453;-66
2022/01/27 10:36:31;;;;;;;8.45;8.05;;;;;;;3.66;100.00;101141.44;5005590;28;20133;-66
2022/01/27 10:38:59;;;;;;;8.95;8.45;;;;;;;3.58;100.00;101136.78;5016283;28;20104;-65
2022/01/27 10:41:27;;;;;;;9.15;8.65;;;;;;;3.52;100.00;101137.22;5013472;28;20116;-65
2022/01/27 10:44:42;;;;;;;8.77;8.27;;;;;;;3.55;100.00;101137.84;5009723;28;20084;-67
2022/01/27 10:47:15;;;;;;;8.30;7.90;;;;;;;3.67;100.00;101137.88;4965880;28;20034;-64
2022/01/27 10:49:56;;;;;;;8.98;8.48;;;;;;;3.77;100.00;101131.84;5007515;28;20037;-66
2022/01/27 10:55:17;;;;;;;8.98;8.48;;;;;;;4.08;99.99;101130.31;5017626;28;20040;-66
2022/01/27 10:57:49;;;;;;;9.48;8.88;;;;;;;3.96;100.00;101122.53;5007013;28;20030;-65
2022/01/27 11:00:21;;;;;;;8.32;7.93;;;;;;;4.25;99.63;101129.00;5013985;28;20488;-65
2022/01/27 11:03:01;;;;;;;8.65;8.15;;;;;;;4.64;98.63;101127.69;5016629;28;20036;-65
2022/01/27 11:05:34;;;;;;;7.82;7.43;;;;;;;4.65;97.13;101121.47;5008576;28;20021;-65
2022/01/27 11:08:00;;;;;;;8.32;7.88;;;;;;;4.51;95.67;101115.66;5012488;28;20056;-65
2022/01/27 11:10:26;;;;;;;8.65;8.15;;;;;;;4.62;95.59;101119.06;5002868;28;20034;-65
2022/01/27 11:12:52;;;;;;;8.25;7.85;;;;;;;4.50;96.01;101112.19;5001666;28;20026;-65
2022/01/27 11:15:20;;;;;;;11.20;10.40;;;;;;;4.55;95.34;101109.16;5000173;28;20037;-65
2022/01/27 11:17:48;;;;;;;10.52;9.82;;;;;;;4.40;95.64;101096.28;5001678;28;20141;-67
2022/01/27 11:27:43;;;;;;;9.55;8.95;;;;;;;4.90;94.29;101096.69;4956375;28;1256185;-66
2022/01/27 11:30:17;;;;;;;8.45;8.05;;;;;;;5.01;95.03;101093.19;5003697;28;20037;-65
2022/01/27 11:32:52;;;;;;;10.18;9.50;;;;;;;5.04;93.83;101095.56;4998881;28;20452;-64
2022/01/27 11:35:20;;;;;;;8.70;8.20;;;;;;;5.07;93.61;101095.34;5008563;28;20416;-64
2022/01/27 11:37:54;;;;;;;9.40;8.82;;;;;;;4.67;93.41;101098.53;5005553;28;20041;-64
2022/01/27 11:40:23;;;;;;;10.27;9.57;;;;;;;4.78;93.49;101088.97;4990508;28;20025;-65
2022/01/27 11:42:54;;;;;;;9.98;9.30;;;;;;;4.83;92.38;101086.78;5004000;28;20863;-63
2022/01/27 11:45:23;;;;;;;9.45;8.90;;;;;;;4.84;93.84;101072.69;5000752;28;20026;-66
2022/01/27 11:48:06;;;;;;;8.90;8.40;;;;;;;4.72;93.61;101079.78;5005508;28;20684;-66
2022/01/27 11:50:54;;;;;;;9.65;9.05;;;;;;;4.75;94.21;101081.31;5002472;28;20172;-65
2022/01/27 11:53:42;;;;;;;9.25;8.75;;;;;;;4.44;95.27;101084.59;5002264;28;20104;-65
2022/01/27 11:56:24;;;;;;;8.00;7.60;;;;;;;4.44;95.85;101081.13;5005731;28;20034;-66
2022/01/27 11:58:52;;;;;;;9.05;8.55;;;;;;;4.33;96.01;101074.13;5002224;28;20056;-66
2022/01/27 12:01:29;;;;;;;9.07;8.57;;;;;;;4.25;97.17;101080.91;5004000;28;20386;-65
2022/01/27 12:04:09;;;;;;;8.38;7.97;;;;;;;4.18;96.87;101079.72;5002170;28;20030;-64
2022/01/27 12:06:50;;;;;;;8.57;8.07;;;;;;;4.26;96.57;101066.81;5001575;28;20030;-64
2022/01/27 12:09:22;;;;;;;8.05;7.65;;;;;;;4.11;96.90;101074.97;5005689;28;20041;-65
2022/01/27 12:11:51;;;;;;;10.20;9.55;;;;;;;4.29;96.50;101071.84;5000904;28;20156;-66
2022/01/27 12:14:42;;;;;;;9.85;9.25;;;;;;;4.13;95.94;101074.84;5004267;28;20018;-65
2022/01/27 12:17:10;;;;;;;8.82;8.32;;;;;;;4.18;96.25;101069.22;4997659;28;20042;-65
2022/01/27 12:19:49;;;;;;;8.73;8.23;;;;;;;4.16;96.25;101062.28;5002571;28;20692;-65
2022/01/27 12:22:16;;;;;;;8.48;8.02;;;;;;;4.07;96.90;101064.81;4997762;28;20034;-67
2022/01/27 12:24:57;;;;;;;9.52;8.93;;;;;;;3.96;96.24;101051.66;4999562;28;20037;-67